Time;durP1;ratioP1;P1;durP2;ratioP2;P2;SDS_P1;SDS_P2;PMS_P1;PMS_P2;Temp;Humidity;BMP_temperature;BMP_pressure;BME280_temperature;BME280_humidity;BME280_pressure;Samples;Min_cycle;Max_cycle;Signal;HPM_P1;HPM_P2
2024/02/07 00:01:38;;;;;;;167.95;110.43;;;9.90;99.90;;;;;;6277547;22;20465;-73
2024/02/07 00:12:10;;;;;;;160.98;104.20;;;10.00;99.90;;;;;;6183980;23;20044;-73
2024/02/07 00:29:16;;;;;;;163.88;105.93;;;9.90;99.90;;;;;;6120899;23;20028;-74
2024/02/07 00:31:45;;;;;;;162.20;104.30;;;9.90;99.90;;;;;;6142426;23;20021;-73
2024/02/07 00:34:11;;;;;;;150.00;100.10;;;9.90;99.90;;;;;;6153327;23;20454;-74
2024/02/07 00:36:38;;;;;;;164.48;104.40;;;9.90;99.90;;;;;;6194238;23;20001;-73
2024/02/07 00:39:05;;;;;;;153.20;101.57;;;9.90;99.90;;;;;;6236014;22;20027;-73
2024/02/07 00:41:30;;;;;;;159.55;102.25;;;9.90;99.90;;;;;;6276079;22;20057;-73
2024/02/07 00:43:56;;;;;;;160.63;103.82;;;10.00;99.90;;;;;;6249390;22;20004;-74
2024/02/07 00:46:22;;;;;;;165.45;103.13;;;10.00;99.90;;;;;;6276475;22;19996;-74
2024/02/07 00:48:48;;;;;;;151.95;96.90;;;10.00;99.90;;;;;;6276042;22;20210;-74
2024/02/07 00:51:14;;;;;;;147.88;96.57;;;10.00;99.90;;;;;;6249355;22;19999;-74
2024/02/07 00:53:40;;;;;;;155.70;100.20;;;10.00;99.90;;;;;;6276042;22;20441;-74
2024/02/07 00:56:06;;;;;;;142.80;95.50;;;9.90;99.90;;;;;;6276018;22;20071;-74
2024/02/07 00:58:31;;;;;;;147.50;93.22;;;10.00;99.90;;;;;;6276293;22;20007;-74
2024/02/07 01:00:57;;;;;;;147.77;95.75;;;10.00;99.90;;;;;;6275675;22;19996;-73
2024/02/07 01:03:24;;;;;;;141.43;93.57;;;9.90;99.90;;;;;;6276415;22;20030;-74
2024/02/07 01:05:49;;;;;;;141.32;93.07;;;10.00;99.90;;;;;;6276261;22;20434;-74
2024/02/07 01:08:15;;;;;;;139.82;90.90;;;9.90;99.90;;;;;;6275695;22;20006;-73
2024/02/07 01:10:42;;;;;;;133.40;89.63;;;9.90;99.90;;;;;;6275675;22;20008;-71
2024/02/07 01:13:08;;;;;;;144.57;91.32;;;10.00;99.90;;;;;;6275493;22;19996;-74
2024/02/07 01:15:33;;;;;;;134.40;88.43;;;10.00;99.90;;;;;;6275615;22;20034;-74
2024/02/07 01:17:59;;;;;;;137.80;90.57;;;9.90;99.90;;;;;;6275867;22;19999;-73
2024/02/07 01:20:25;;;;;;;141.02;90.57;;;9.90;99.90;;;;;;6275629;22;19999;-73
2024/02/07 01:22:51;;;;;;;133.63;90.78;;;9.90;99.90;;;;;;6276220;22;20004;-73
2024/02/07 01:25:17;;;;;;;143.52;90.05;;;9.90;99.90;;;;;;6275731;22;19999;-74
2024/02/07 01:27:43;;;;;;;139.27;88.30;;;9.90;99.90;;;;;;6275896;22;20426;-73
2024/02/07 01:30:12;;;;;;;142.02;90.35;;;9.90;99.90;;;;;;6275182;22;20061;-74
2024/02/07 01:32:42;;;;;;;141.90;91.65;;;9.90;99.90;;;;;;6276020;22;20023;-73
2024/02/07 01:35:12;;;;;;;140.23;89.57;;;9.90;99.90;;;;;;6276182;22;20334;-74
2024/02/07 01:37:38;;;;;;;137.38;89.93;;;9.90;99.90;;;;;;6276932;22;20023;-73
2024/02/07 01:40:11;;;;;;;136.90;88.82;;;9.90;99.90;;;;;;6276485;22;19999;-73
2024/02/07 01:42:38;;;;;;;141.43;92.00;;;9.90;99.90;;;;;;6276946;22;19996;-74
2024/02/07 01:48:55;;;;;;;139.30;88.80;;;9.90;99.90;;;;;;6182175;23;20020;-73
2024/02/07 01:54:40;;;;;;;144.93;91.05;;;9.90;99.90;;;;;;6165289;23;20063;-73
2024/02/07 02:05:22;;;;;;;135.95;88.22;;;9.90;99.90;;;;;;5976632;24;20012;-73
2024/02/07 02:11:11;;;;;;;137.57;89.70;;;9.90;99.90;;;;;;5979901;24;20080;-73
2024/02/07 02:13:38;;;;;;;133.25;89.38;;;9.90;99.90;;;;;;5990860;23;20008;-74
2024/02/07 02:16:04;;;;;;;138.38;90.05;;;9.80;99.90;;;;;;6181980;23;20320;-73
2024/02/07 02:18:30;;;;;;;136.43;87.53;;;9.80;99.90;;;;;;6211700;22;20394;-73
2024/02/07 02:20:58;;;;;;;139.40;89.72;;;9.80;99.90;;;;;;6275129;22;19996;-74
2024/02/07 02:23:43;;;;;;;147.52;93.13;;;9.80;99.90;;;;;;6248571;22;20307;-75
2024/02/07 02:26:43;;;;;;;143.60;92.13;;;9.80;99.90;;;;;;6248279;22;20050;-73
2024/02/07 02:29:36;;;;;;;147.73;94.85;;;9.80;99.90;;;;;;6275349;22;20095;-73
2024/02/07 02:32:03;;;;;;;144.30;91.85;;;9.80;99.90;;;;;;6274949;22;20018;-74
2024/02/07 02:34:31;;;;;;;144.80;95.70;;;9.80;99.90;;;;;;6248401;22;20422;-74
2024/02/07 02:36:58;;;;;;;147.88;92.35;;;9.80;99.90;;;;;;6275068;22;20440;-74
2024/02/07 02:39:30;;;;;;;151.75;94.18;;;9.80;99.90;;;;;;6275526;22;20011;-73
2024/02/07 02:41:57;;;;;;;146.70;92.78;;;9.80;99.90;;;;;;6275390;22;20000;-73
2024/02/07 02:44:25;;;;;;;142.27;92.40;;;9.80;99.90;;;;;;6275564;22;20424;-74
2024/02/07 02:46:51;;;;;;;146.23;91.43;;;9.80;99.90;;;;;;6275820;22;20410;-74
2024/02/07 02:49:16;;;;;;;147.57;95.20;;;9.80;99.90;;;;;;6276614;22;20018;-73
2024/02/07 02:51:42;;;;;;;149.68;95.25;;;9.80;99.90;;;;;;6250285;22;20010;-73
2024/02/07 02:54:08;;;;;;;142.65;94.10;;;9.80;99.90;;;;;;6250405;22;20061;-77
2024/02/07 02:56:35;;;;;;;146.27;95.72;;;9.80;99.90;;;;;;6277110;22;20004;-75
2024/02/07 02:59:05;;;;;;;144.88;93.28;;;9.80;99.90;;;;;;6250250;22;20454;-76
2024/02/07 03:01:32;;;;;;;143.82;93.80;;;9.80;99.90;;;;;;6277103;22;20122;-76
2024/02/07 03:03:58;;;;;;;156.20;97.53;;;9.80;99.90;;;;;;6276797;22;19999;-76
2024/02/07 03:06:37;;;;;;;145.55;93.63;;;9.80;99.90;;;;;;6276808;22;20460;-76
2024/02/07 03:09:07;;;;;;;140.55;91.47;;;9.80;99.90;;;;;;6277273;22;20019;-76
2024/02/07 03:11:34;;;;;;;148.00;94.38;;;9.70;99.90;;;;;;6277255;22;20004;-73
2024/02/07 03:14:03;;;;;;;144.10;94.05;;;9.70;99.90;;;;;;6277516;22;20000;-73
2024/02/07 03:16:29;;;;;;;143.23;91.97;;;9.70;99.90;;;;;;6278510;22;19995;-73
2024/02/07 03:18:58;;;;;;;142.15;91.28;;;9.70;99.90;;;;;;6250636;22;20015;-73
2024/02/07 03:21:26;;;;;;;143.18;93.43;;;9.70;99.90;;;;;;6278421;22;19999;-73
2024/02/07 03:23:55;;;;;;;144.50;93.97;;;9.80;99.90;;;;;;6277425;22;20007;-73
2024/02/07 03:30:24;;;;;;;143.40;91.13;;;9.70;99.90;;;;;;6277216;22;20077;-73
2024/02/07 03:47:21;;;;;;;154.05;97.15;;;9.70;99.90;;;;;;5953219;24;20019;-73
2024/02/07 03:50:29;;;;;;;153.40;96.43;;;9.70;99.90;;;;;;5906698;24;20047;-73
2024/02/07 03:53:05;;;;;;;155.07;97.60;;;9.70;99.90;;;;;;6012610;23;20087;-73
2024/02/07 03:55:31;;;;;;;154.27;98.38;;;9.60;99.90;;;;;;6102184;23;20009;-73
2024/02/07 03:57:56;;;;;;;155.77;96.88;;;9.70;99.90;;;;;;6271950;22;20327;-73
2024/02/07 04:00:22;;;;;;;160.90;101.17;;;9.70;99.90;;;;;;6273303;22;20010;-74
2024/02/07 04:02:49;;;;;;;156.67;98.47;;;9.70;99.90;;;;;;6273602;22;19999;-73
2024/02/07 04:05:17;;;;;;;156.68;97.72;;;9.60;99.90;;;;;;6275768;22;20000;-73
2024/02/07 04:07:43;;;;;;;157.13;97.10;;;9.70;99.90;;;;;;6276581;22;20008;-73
2024/02/07 04:10:11;;;;;;;151.13;97.38;;;9.70;99.90;;;;;;6276232;22;20043;-73
2024/02/07 05:31:15;;;;;;;144.60;91.00;;;9.50;99.90;;;;;;6065548;23;20155;-73
2024/02/07 05:37:59;;;;;;;145.53;91.77;;;9.50;99.90;;;;;;6064048;23;20098;-73
2024/02/07 05:40:25;;;;;;;143.27;90.47;;;9.50;99.90;;;;;;6048257;23;20015;-75
2024/02/07 05:42:51;;;;;;;153.00;96.87;;;9.50;99.90;;;;;;6132690;22;20012;-73
2024/02/07 05:45:17;;;;;;;145.17;93.20;;;9.50;99.90;;;;;;6276014;22;19999;-73
2024/02/07 05:47:43;;;;;;;140.63;91.50;;;9.50;99.90;;;;;;6275831;22;20075;-74
2024/02/07 05:50:09;;;;;;;146.17;94.20;;;9.50;99.90;;;;;;6275894;22;20069;-73
2024/02/07 05:52:40;;;;;;;146.80;92.93;;;9.50;99.90;;;;;;6248848;22;20330;-74
2024/02/07 05:55:07;;;;;;;138.50;90.07;;;9.50;99.90;;;;;;6276022;22;20004;-73
2024/02/07 05:57:33;;;;;;;146.80;94.53;;;9.50;99.90;;;;;;6276020;22;20327;-73
2024/02/07 06:00:05;;;;;;;143.17;90.37;;;9.50;99.90;;;;;;6275592;22;20299;-74
2024/02/07 06:02:31;;;;;;;146.50;91.83;;;9.50;99.90;;;;;;6275602;22;20303;-74
2024/02/07 06:05:01;;;;;;;141.27;91.00;;;9.50;99.90;;;;;;6275574;22;20257;-73
2024/02/07 06:07:27;;;;;;;145.88;92.47;;;9.50;99.90;;;;;;6248414;22;20037;-73
2024/02/07 06:09:53;;;;;;;147.27;93.30;;;9.50;99.90;;;;;;6275225;22;20430;-73
2024/02/07 06:12:20;;;;;;;148.02;94.90;;;9.50;99.90;;;;;;6275451;22;20008;-74
2024/02/07 06:14:46;;;;;;;161.80;99.80;;;9.50;99.90;;;;;;6275336;22;20002;-73
2024/02/07 06:17:11;;;;;;;171.40;104.87;;;9.40;99.90;;;;;;6275223;22;20003;-73
2024/02/07 06:19:37;;;;;;;173.93;102.80;;;9.40;99.90;;;;;;6275444;22;20032;-74
2024/02/07 06:22:03;;;;;;;156.70;99.90;;;9.40;99.90;;;;;;6277151;22;19999;-74
2024/02/07 06:24:29;;;;;;;158.33;96.43;;;9.40;99.90;;;;;;6277387;22;20056;-76
2024/02/07 06:26:55;;;;;;;147.57;92.90;;;9.40;99.90;;;;;;6250340;22;20082;-76
2024/02/07 06:29:21;;;;;;;151.57;90.13;;;9.40;99.90;;;;;;6277396;22;20050;-76
2024/02/07 06:31:47;;;;;;;145.20;91.03;;;9.50;99.90;;;;;;6277535;22;20007;-76
2024/02/07 06:34:12;;;;;;;143.10;89.97;;;9.40;99.90;;;;;;6277748;22;20042;-76
2024/02/07 06:36:38;;;;;;;136.27;87.67;;;9.40;99.90;;;;;;6277241;22;19996;-76
2024/02/07 06:39:04;;;;;;;131.40;82.23;;;9.40;99.90;;;;;;6277804;22;20006;-76
2024/02/07 06:41:30;;;;;;;126.60;79.37;;;9.40;99.90;;;;;;6277363;22;20434;-74
2024/02/07 06:43:56;;;;;;;129.80;82.60;;;9.40;99.90;;;;;;6278240;22;20026;-73
2024/02/07 06:46:22;;;;;;;132.73;80.17;;;9.40;99.90;;;;;;6278084;22;20007;-73
2024/02/07 06:48:48;;;;;;;128.83;83.30;;;9.40;99.90;;;;;;6277549;22;20011;-73
2024/02/07 06:51:14;;;;;;;129.80;82.50;;;9.40;99.90;;;;;;6278058;22;20057;-73
2024/02/07 06:53:40;;;;;;;128.43;81.73;;;9.40;99.90;;;;;;6251094;22;20007;-73
2024/02/07 06:56:50;;;;;;;132.00;80.83;;;9.40;99.90;;;;;;6277905;22;20000;-73
2024/02/07 07:10:48;;;;;;;133.80;83.10;;;9.50;99.90;;;;;;6124984;23;20109;-73
2024/02/07 07:23:07;;;;;;;144.32;88.70;;;9.50;99.90;;;;;;6024602;23;20067;-74
2024/02/07 07:25:33;;;;;;;142.47;90.77;;;9.50;99.90;;;;;;6064692;23;20502;-74
2024/02/07 07:27:59;;;;;;;149.83;93.33;;;9.50;99.90;;;;;;6259008;22;20007;-74
2024/02/07 07:30:25;;;;;;;154.30;96.43;;;9.50;99.90;;;;;;6276313;22;20008;-74
2024/02/07 07:32:51;;;;;;;158.07;96.00;;;9.50;99.90;;;;;;6248836;22;20015;-74
2024/02/07 07:35:16;;;;;;;157.57;98.53;;;9.40;99.90;;;;;;6275824;22;20007;-73
2024/02/07 07:37:43;;;;;;;161.77;99.55;;;9.40;99.90;;;;;;6249118;22;20014;-74
2024/02/07 07:40:09;;;;;;;160.17;100.87;;;9.40;99.90;;;;;;6247423;22;20330;-74
2024/02/07 07:42:35;;;;;;;158.67;97.63;;;9.50;99.90;;;;;;6276405;22;20000;-74
2024/02/07 07:45:01;;;;;;;161.90;101.70;;;9.50;99.90;;;;;;6275993;22;19996;-74
2024/02/07 07:47:27;;;;;;;150.90;95.30;;;9.40;99.90;;;;;;6276148;22;20061;-74
2024/02/07 07:49:52;;;;;;;157.90;96.57;;;9.50;99.90;;;;;;6276318;22;20012;-74
2024/02/07 07:52:18;;;;;;;152.45;96.78;;;9.40;99.90;;;;;;6276342;22;19999;-74
2024/02/07 07:54:44;;;;;;;155.97;98.13;;;9.50;99.90;;;;;;6275895;22;20020;-74
2024/02/07 07:57:10;;;;;;;149.38;95.90;;;9.40;99.90;;;;;;6249283;22;20014;-74
2024/02/07 07:59:36;;;;;;;162.17;98.73;;;9.40;99.90;;;;;;6276926;22;20003;-73
2024/02/07 08:02:02;;;;;;;153.97;97.53;;;9.40;99.90;;;;;;6276743;22;20000;-74
2024/02/07 08:04:28;;;;;;;162.53;99.70;;;9.40;99.90;;;;;;6274782;22;20008;-74
2024/02/07 08:06:56;;;;;;;155.20;101.13;;;9.50;99.90;;;;;;6204668;22;20047;-73
2024/02/07 08:09:21;;;;;;;151.00;97.30;;;9.40;99.90;;;;;;6216240;23;20008;-70
2024/02/07 08:11:48;;;;;;;155.37;97.23;;;9.40;99.90;;;;;;6215572;23;20008;-78
2024/02/07 08:14:14;;;;;;;152.90;97.27;;;9.40;99.90;;;;;;6215231;23;20008;-81
2024/02/07 08:16:41;;;;;;;184.27;113.67;;;9.40;99.90;;;;;;6214686;23;20011;-79
2024/02/07 08:19:25;;;;;;;191.13;119.97;;;9.40;99.90;;;;;;6215755;23;20428;-79
2024/02/07 08:21:51;;;;;;;160.53;103.73;;;9.40;99.90;;;;;;6188480;23;20079;-78
2024/02/07 08:24:18;;;;;;;159.57;100.73;;;9.40;99.90;;;;;;6206147;23;20430;-78
2024/02/07 08:26:44;;;;;;;160.55;98.65;;;9.40;99.90;;;;;;6159516;23;20546;-81
2024/02/07 08:29:10;;;;;;;153.73;96.82;;;9.40;99.90;;;;;;6183613;23;20047;-80
2024/02/07 08:31:36;;;;;;;148.87;96.57;;;9.40;99.90;;;;;;6185535;23;20001;-79
2024/02/07 08:34:01;;;;;;;156.77;99.10;;;9.40;99.90;;;;;;6158632;23;20004;-78
2024/02/07 08:36:28;;;;;;;164.68;101.38;;;9.50;99.90;;;;;;6184998;23;20043;-78
2024/02/07 08:38:54;;;;;;;164.33;102.27;;;9.40;99.90;;;;;;6185556;23;19998;-79
2024/02/07 08:41:20;;;;;;;173.87;107.27;;;9.50;99.90;;;;;;6185499;23;20009;-79
2024/02/07 08:43:46;;;;;;;175.07;107.10;;;9.50;99.90;;;;;;6185246;23;20003;-80
2024/02/07 08:46:12;;;;;;;169.43;107.60;;;9.50;99.90;;;;;;6185651;23;20140;-77
2024/02/07 08:48:38;;;;;;;162.65;101.15;;;9.50;99.90;;;;;;6185550;23;20044;-77
2024/02/07 08:51:04;;;;;;;158.03;99.03;;;9.50;99.90;;;;;;6185572;23;20415;-76
2024/02/07 08:53:30;;;;;;;155.13;99.53;;;9.50;99.90;;;;;;6185562;23;20008;-76
2024/02/07 08:55:57;;;;;;;164.70;102.33;;;9.50;99.90;;;;;;6185342;23;19997;-76
2024/02/07 08:58:24;;;;;;;157.50;100.40;;;9.50;99.90;;;;;;6184881;23;20063;-77
2024/02/07 09:11:58;;;;;;;161.07;100.80;;;9.50;99.90;;;;;;6077756;23;20021;-75
2024/02/07 09:15:27;;;;;;;164.10;102.97;;;9.50;99.90;;;;;;6123048;23;20029;-76
2024/02/07 09:25:37;;;;;;;163.13;98.23;;;9.60;99.90;;;;;;6007417;23;20019;-77
2024/02/07 09:27:40;;;;;;;163.30;99.63;;;9.50;99.90;;;;;;6152567;23;20033;-77
2024/02/07 09:30:07;;;;;;;166.60;103.10;;;9.50;99.90;;;;;;6185258;23;20013;-77
2024/02/07 09:32:35;;;;;;;173.73;100.23;;;9.50;99.90;;;;;;6185213;23;20041;-77
2024/02/07 09:35:03;;;;;;;160.90;101.50;;;9.50;99.90;;;;;;6185152;23;20419;-77
2024/02/07 09:37:28;;;;;;;163.23;100.10;;;9.50;99.90;;;;;;6185223;23;19997;-77
2024/02/07 09:39:54;;;;;;;160.67;101.17;;;9.50;99.90;;;;;;6185021;23;20005;-77
2024/02/07 09:42:22;;;;;;;164.75;101.78;;;9.50;99.90;;;;;;6185725;23;20005;-76
2024/02/07 09:44:51;;;;;;;172.13;101.50;;;9.60;99.90;;;;;;6158841;23;20009;-77
2024/02/07 09:47:19;;;;;;;167.23;103.78;;;9.60;99.90;;;;;;6185012;23;20008;-76
2024/02/07 09:49:47;;;;;;;163.93;99.00;;;9.60;99.90;;;;;;6158553;23;20021;-77
2024/02/07 09:52:14;;;;;;;166.47;102.87;;;9.50;99.90;;;;;;6185391;23;20442;-76
2024/02/07 09:54:46;;;;;;;162.87;103.83;;;9.60;99.90;;;;;;6185152;23;20040;-77
2024/02/07 09:57:13;;;;;;;167.35;102.32;;;9.50;99.90;;;;;;6184706;23;20424;-76
2024/02/07 09:59:39;;;;;;;169.47;106.77;;;9.50;99.90;;;;;;6184819;23;20001;-76
2024/02/07 10:02:12;;;;;;;168.17;105.57;;;9.60;99.90;;;;;;6158494;23;20005;-77
2024/02/07 10:04:45;;;;;;;171.70;103.37;;;9.50;99.90;;;;;;6184884;23;20423;-77
2024/02/07 10:07:12;;;;;;;166.63;102.57;;;9.50;99.90;;;;;;6185247;23;20001;-77
2024/02/07 10:09:39;;;;;;;164.77;102.20;;;9.60;99.90;;;;;;6185189;23;20008;-77
2024/02/07 10:12:10;;;;;;;167.97;105.00;;;9.60;99.90;;;;;;6185135;23;19997;-76
2024/02/07 10:14:36;;;;;;;163.43;103.45;;;9.60;99.90;;;;;;6184810;23;20494;-76
2024/02/07 10:17:04;;;;;;;164.43;103.87;;;9.60;99.90;;;;;;6185197;23;20296;-76
2024/02/07 10:19:32;;;;;;;172.57;106.97;;;9.60;99.90;;;;;;6185087;23;20123;-75
2024/02/07 10:21:58;;;;;;;167.70;102.93;;;9.60;99.90;;;;;;6185180;23;20449;-77
2024/02/07 10:24:29;;;;;;;164.37;103.27;;;9.60;99.90;;;;;;6184919;23;20005;-76
2024/02/07 10:26:55;;;;;;;157.43;98.87;;;9.60;99.90;;;;;;6184297;23;20066;-77
2024/02/07 10:29:22;;;;;;;153.88;98.95;;;9.60;99.90;;;;;;6157914;23;20474;-77
2024/02/07 10:31:54;;;;;;;147.50;95.55;;;9.70;99.90;;;;;;6184657;23;20304;-76
2024/02/07 10:34:20;;;;;;;;;;;9.70;99.90;;;;;;6186048;23;20009;-76
2024/02/07 10:36:46;;;;;;;150.20;92.63;;;9.70;99.90;;;;;;6185547;23;19946;-77
2024/02/07 10:39:12;;;;;;;154.87;97.53;;;9.70;99.90;;;;;;6185399;23;20001;-77
2024/02/07 10:41:40;;;;;;;156.50;94.25;;;9.60;99.90;;;;;;6185192;23;20446;-77
2024/02/07 10:47:51;;;;;;;150.55;92.35;;;9.60;99.90;;;;;;6065651;23;20098;-78
2024/02/07 10:54:33;;;;;;;156.18;93.57;;;9.60;99.90;;;;;;6064340;23;20066;-76
2024/02/07 11:03:26;;;;;;;157.98;95.65;;;9.60;99.90;;;;;;6005847;23;20012;-76
2024/02/07 11:06:49;;;;;;;153.33;93.07;;;9.60;99.90;;;;;;6032520;23;20010;-76
2024/02/07 11:09:27;;;;;;;155.60;95.63;;;9.70;99.90;;;;;;5952884;24;20047;-76
2024/02/07 11:11:57;;;;;;;150.82;92.13;;;9.60;99.90;;;;;;6031724;23;20363;-75
2024/02/07 11:14:23;;;;;;;148.25;92.00;;;9.70;99.90;;;;;;6038151;23;20408;-76
2024/02/07 11:16:49;;;;;;;149.52;92.93;;;9.70;99.90;;;;;;6038154;23;20399;-76
2024/02/07 11:19:15;;;;;;;153.87;93.37;;;9.70;99.90;;;;;;6152730;23;20379;-77
2024/02/07 11:21:42;;;;;;;143.47;91.20;;;9.70;99.90;;;;;;6186585;23;20081;-76
2024/02/07 11:24:10;;;;;;;153.90;91.53;;;9.70;99.90;;;;;;6186669;23;19997;-73
2024/02/07 11:26:36;;;;;;;150.32;92.05;;;9.70;99.90;;;;;;6186360;23;20360;-76
2024/02/07 11:29:03;;;;;;;149.43;92.65;;;9.70;99.90;;;;;;6185941;23;20016;-79
2024/02/07 11:31:30;;;;;;;143.60;87.80;;;9.70;99.90;;;;;;6160056;23;20328;-76
2024/02/07 11:33:56;;;;;;;141.88;87.80;;;9.70;99.90;;;;;;6185974;23;20005;-76
2024/02/07 11:36:22;;;;;;;140.67;85.37;;;9.70;99.90;;;;;;6186088;23;19997;-77
2024/02/07 11:38:58;;;;;;;136.57;84.80;;;9.70;99.90;;;;;;6186408;23;20009;-76
2024/02/07 11:41:24;;;;;;;146.25;85.93;;;9.70;99.90;;;;;;6186026;23;20451;-76
2024/02/07 11:43:53;;;;;;;146.77;87.60;;;9.70;99.90;;;;;;6186173;23;20001;-77
2024/02/07 11:46:21;;;;;;;146.63;87.65;;;9.70;99.90;;;;;;6186135;23;20432;-77
2024/02/07 11:48:52;;;;;;;144.80;87.20;;;9.70;99.90;;;;;;6186024;23;20008;-77
2024/02/07 11:51:19;;;;;;;147.13;87.33;;;9.70;99.90;;;;;;6185682;23;20412;-79
2024/02/07 11:53:46;;;;;;;149.27;88.43;;;9.70;99.90;;;;;;6186198;23;19997;-79
2024/02/07 11:56:17;;;;;;;148.90;89.90;;;9.70;99.90;;;;;;6185727;23;20012;-79
2024/02/07 11:58:46;;;;;;;148.67;89.93;;;9.70;99.90;;;;;;6158343;23;20005;-79
2024/02/07 12:01:12;;;;;;;164.05;93.30;;;9.70;99.90;;;;;;6185966;23;20084;-79
2024/02/07 12:03:38;;;;;;;155.70;92.80;;;9.70;99.90;;;;;;6185922;23;20009;-78
2024/02/07 12:06:09;;;;;;;158.82;96.72;;;9.70;99.90;;;;;;6186131;23;20008;-79
2024/02/07 12:08:38;;;;;;;155.85;94.15;;;9.70;99.90;;;;;;6185459;23;20065;-79
2024/02/07 12:11:05;;;;;;;161.07;96.23;;;9.70;99.90;;;;;;6185293;23;20008;-80
2024/02/07 12:13:34;;;;;;;155.23;92.47;;;9.70;99.90;;;;;;6186588;23;19997;-76
2024/02/07 12:16:03;;;;;;;150.57;95.60;;;9.80;99.90;;;;;;6187129;23;20009;-76
2024/02/07 12:18:29;;;;;;;140.57;89.57;;;9.70;99.90;;;;;;6187027;23;20360;-77
2024/02/07 12:21:02;;;;;;;146.18;91.20;;;9.80;99.90;;;;;;6186133;23;20324;-76
2024/02/07 12:23:29;;;;;;;149.07;89.25;;;9.80;99.90;;;;;;6186502;23;20366;-76
2024/02/07 12:44:13;;;;;;;;;;;;;;;;;;;;;
2024/02/07 12:50:32;;;;;;;146.20;88.03;;;9.80;99.90;;;;;;6047626;23;20025;-75
2024/02/07 12:53:14;;;;;;;144.90;88.28;;;9.80;99.90;;;;;;6065281;23;20441;-74
2024/02/07 12:55:45;;;;;;;147.40;87.78;;;9.80;99.90;;;;;;6072962;23;20480;-74
2024/02/07 12:58:11;;;;;;;150.73;87.55;;;9.90;99.90;;;;;;6093741;23;20356;-74
2024/02/07 13:00:37;;;;;;;147.35;87.90;;;9.90;99.90;;;;;;6131854;23;20001;-74
2024/02/07 13:03:03;;;;;;;137.13;85.10;;;9.90;99.90;;;;;;6185184;23;20005;-76
2024/02/07 13:05:29;;;;;;;136.40;84.93;;;9.90;99.90;;;;;;6185041;23;20072;-74
2024/02/07 13:07:54;;;;;;;147.80;87.73;;;10.00;99.90;;;;;;6185173;23;20029;-74
2024/02/07 13:10:20;;;;;;;150.30;85.07;;;9.90;99.90;;;;;;6158682;23;20044;-75
2024/02/07 13:12:46;;;;;;;140.35;85.10;;;9.90;99.90;;;;;;6185122;23;20001;-74
2024/02/07 13:15:16;;;;;;;135.83;83.47;;;10.00;99.90;;;;;;6185019;23;20001;-75
2024/02/07 13:17:46;;;;;;;150.57;83.83;;;9.90;99.90;;;;;;6185333;23;20016;-74
2024/02/07 13:20:13;;;;;;;148.70;84.43;;;10.00;99.90;;;;;;6184950;23;20416;-73
2024/02/07 13:22:39;;;;;;;137.90;83.30;;;9.90;99.90;;;;;;6185395;23;20431;-74
2024/02/07 13:25:13;;;;;;;130.77;80.63;;;10.00;99.90;;;;;;6184978;23;20055;-76
2024/02/07 13:27:42;;;;;;;136.18;81.38;;;10.00;99.90;;;;;;6184982;23;20420;-76
2024/02/07 13:30:09;;;;;;;139.00;81.63;;;9.90;99.90;;;;;;6185169;23;20039;-77
2024/02/07 13:32:35;;;;;;;128.60;80.88;;;10.00;99.90;;;;;;6185427;23;20009;-75
2024/02/07 13:35:01;;;;;;;145.47;85.70;;;10.00;99.90;;;;;;6185140;23;20470;-76
2024/02/07 13:37:27;;;;;;;141.68;84.25;;;9.90;99.90;;;;;;6185175;23;20443;-74
2024/02/07 13:39:55;;;;;;;135.57;82.70;;;10.00;99.90;;;;;;6185009;23;20001;-74
2024/02/07 13:42:21;;;;;;;139.55;85.07;;;10.00;99.90;;;;;;6185021;23;20427;-74
2024/02/07 13:44:47;;;;;;;131.70;82.70;;;10.00;99.90;;;;;;6184957;23;20411;-74
2024/02/07 13:47:13;;;;;;;131.57;80.67;;;10.00;99.90;;;;;;6184900;23;19997;-74
2024/02/07 13:49:38;;;;;;;139.30;84.63;;;10.00;99.90;;;;;;6184067;23;20016;-77
2024/02/07 13:52:05;;;;;;;133.60;83.05;;;10.00;99.90;;;;;;6184601;23;20367;-74
2024/02/07 13:54:32;;;;;;;137.82;84.63;;;10.00;99.90;;;;;;6183030;23;20136;-74
2024/02/07 13:56:58;;;;;;;137.85;84.38;;;10.00;99.90;;;;;;6184921;23;20001;-74
2024/02/07 13:59:23;;;;;;;139.80;85.20;;;10.00;99.90;;;;;;6185121;23;20007;-74
2024/02/07 14:01:50;;;;;;;137.87;86.83;;;10.00;99.90;;;;;;6185692;23;20411;-73
2024/02/07 14:04:16;;;;;;;130.63;80.88;;;10.00;99.90;;;;;;6185340;23;20013;-74
2024/02/07 14:26:53;;;;;;;145.07;86.63;;;9.90;99.90;;;;;;6044617;23;20520;-74
2024/02/07 14:32:55;;;;;;;152.80;88.95;;;9.90;99.90;;;;;;6080636;23;20098;-76
2024/02/07 14:35:21;;;;;;;144.60;88.18;;;9.90;99.90;;;;;;6041656;23;20003;-76
2024/02/07 14:37:47;;;;;;;149.52;89.05;;;9.90;99.90;;;;;;6099834;23;20012;-75
2024/02/07 14:40:14;;;;;;;156.30;91.07;;;9.90;99.90;;;;;;6184958;23;20008;-73
2024/02/07 14:42:40;;;;;;;150.83;90.50;;;9.90;99.90;;;;;;6185217;23;20005;-73
2024/02/07 14:45:08;;;;;;;144.63;89.93;;;9.90;99.90;;;;;;6186692;23;20008;-73
2024/02/07 14:47:34;;;;;;;152.82;90.20;;;9.90;99.90;;;;;;6185921;23;20016;-72
2024/02/07 14:50:00;;;;;;;153.80;91.30;;;9.90;99.90;;;;;;6159805;23;20391;-73
2024/02/07 14:52:26;;;;;;;160.13;92.60;;;9.90;99.90;;;;;;6186889;23;20032;-72
2024/02/07 14:54:52;;;;;;;154.27;93.75;;;9.90;99.90;;;;;;6185720;23;20001;-73
2024/02/07 14:57:18;;;;;;;154.20;91.07;;;9.90;99.90;;;;;;6183497;23;20001;-72
2024/02/07 14:59:44;;;;;;;155.40;94.03;;;9.90;99.90;;;;;;6184249;23;20455;-73
2024/02/07 15:02:11;;;;;;;148.17;91.03;;;9.90;99.90;;;;;;6184377;23;19997;-73
2024/02/07 15:04:39;;;;;;;140.18;86.32;;;9.90;99.90;;;;;;6184839;23;20016;-72
2024/02/07 15:07:05;;;;;;;137.37;85.33;;;9.90;99.90;;;;;;6184921;23;20001;-72
2024/02/07 15:09:31;;;;;;;155.88;90.35;;;9.90;99.90;;;;;;6184592;23;20162;-73
2024/02/07 15:11:56;;;;;;;147.57;88.40;;;9.90;99.90;;;;;;6185904;23;20052;-73
2024/02/07 15:14:22;;;;;;;154.02;87.22;;;10.00;99.90;;;;;;6186084;23;20028;-71
2024/02/07 15:16:48;;;;;;;151.70;91.55;;;9.90;99.90;;;;;;6186311;23;20055;-71
2024/02/07 15:19:14;;;;;;;151.38;91.53;;;10.00;99.90;;;;;;6186444;23;20001;-71
2024/02/07 15:21:39;;;;;;;146.60;91.43;;;10.00;99.90;;;;;;6186446;23;20001;-72
2024/02/07 15:24:06;;;;;;;146.87;89.73;;;10.00;99.90;;;;;;6186410;23;20005;-71
2024/02/07 15:26:34;;;;;;;157.18;90.90;;;10.00;99.90;;;;;;6186574;23;20012;-72
2024/02/07 15:29:00;;;;;;;154.73;91.07;;;10.00;99.90;;;;;;6186317;23;20036;-72
2024/02/07 15:31:26;;;;;;;148.10;89.32;;;10.00;99.90;;;;;;6186912;23;20005;-72
2024/02/07 15:33:51;;;;;;;155.52;93.13;;;10.00;99.90;;;;;;6186849;23;20007;-73
2024/02/07 15:36:17;;;;;;;138.82;85.15;;;10.00;99.90;;;;;;6187469;23;20001;-73
2024/02/07 15:38:43;;;;;;;141.10;84.38;;;10.00;99.90;;;;;;6186929;23;20432;-73
2024/02/07 15:41:09;;;;;;;132.63;83.25;;;10.00;99.90;;;;;;6185278;23;20001;-73
2024/02/07 15:43:35;;;;;;;149.70;88.10;;;9.90;99.90;;;;;;6157002;23;20017;-73
2024/02/07 15:46:04;;;;;;;143.27;84.93;;;10.00;99.90;;;;;;6183158;23;20012;-74
2024/02/07 15:52:17;;;;;;;154.10;87.57;;;10.00;99.90;;;;;;6072577;23;20441;-74
2024/02/07 15:54:43;;;;;;;143.80;86.83;;;9.90;99.90;;;;;;6095295;23;20003;-74
2024/02/07 15:57:09;;;;;;;146.52;87.47;;;10.00;99.90;;;;;;6139405;23;20088;-76
2024/02/07 15:59:41;;;;;;;148.45;89.50;;;10.00;99.90;;;;;;6186209;23;20001;-75
2024/02/07 16:02:16;;;;;;;149.63;89.47;;;9.90;99.90;;;;;;6186406;23;20043;-74
2024/02/07 16:05:34;;;;;;;155.38;89.47;;;10.00;99.90;;;;;;6183329;23;20339;-74
2024/02/07 16:09:05;;;;;;;144.38;85.82;;;9.90;99.90;;;;;;6144672;23;20009;-74
2024/02/07 16:15:14;;;;;;;157.02;93.00;;;9.90;99.90;;;;;;6124734;23;20092;-73
2024/02/07 16:17:40;;;;;;;162.60;91.88;;;9.90;99.90;;;;;;6122887;23;20356;-73
2024/02/07 16:20:08;;;;;;;155.37;90.83;;;9.90;99.90;;;;;;6123209;23;20006;-74
2024/02/07 16:22:34;;;;;;;165.03;97.63;;;9.90;99.90;;;;;;6156459;23;20032;-73
2024/02/07 16:25:00;;;;;;;164.82;99.38;;;9.90;99.90;;;;;;6185319;23;20001;-74
2024/02/07 16:27:26;;;;;;;164.85;96.78;;;10.00;99.90;;;;;;6185290;23;20317;-73
2024/02/07 16:29:51;;;;;;;156.30;94.95;;;9.90;99.90;;;;;;6159230;23;20016;-74
2024/02/07 16:32:18;;;;;;;158.90;94.22;;;9.90;99.90;;;;;;6185919;23;20017;-74
2024/02/07 16:34:44;;;;;;;155.40;93.40;;;10.00;99.90;;;;;;6185923;23;20328;-73
2024/02/07 16:37:10;;;;;;;146.93;90.13;;;10.00;99.90;;;;;;6185583;23;20005;-74
2024/02/07 16:39:39;;;;;;;152.68;92.22;;;10.00;99.90;;;;;;6159426;23;20005;-74
2024/02/07 16:42:05;;;;;;;143.95;87.28;;;9.90;99.90;;;;;;6185960;23;20033;-73